createdAt,value
2022-12-26T00:02:35.819Z,38.90
2022-12-26T00:05:48.090Z,40.63
2022-12-26T00:09:01.969Z,41.88
2022-12-26T00:12:14.211Z,39.03
2022-12-26T00:15:26.483Z,39.68
2022-12-26T00:18:38.612Z,36.05
2022-12-26T00:21:50.716Z,37.40
2022-12-26T00:25:02.846Z,39.58
2022-12-26T00:28:15.708Z,40.28
2022-12-26T00:31:32.238Z,38.63
2022-12-26T00:34:44.564Z,34.43
2022-12-26T00:37:56.904Z,36.60
2022-12-26T00:41:10.128Z,36.28
2022-12-26T00:44:22.296Z,39.10
2022-12-26T00:47:34.389Z,39.45
2022-12-26T00:50:46.498Z,37.18
2022-12-26T00:53:58.549Z,35.50
2022-12-26T00:57:10.519Z,37.75
2022-12-26T01:00:25.517Z,37.60
2022-12-26T01:03:37.676Z,39.03
2022-12-26T01:06:49.814Z,36.78
2022-12-26T01:10:01.914Z,37.35
2022-12-26T01:13:14.318Z,36.33
2022-12-26T01:16:27.865Z,39.60
2022-12-26T01:19:40.599Z,39.43
2022-12-26T01:22:53.023Z,36.78
2022-12-26T01:26:16.490Z,36.78
2022-12-26T01:29:19.168Z,37.03
2022-12-26T01:32:31.234Z,36.55
2022-12-26T01:35:43.291Z,40.68
2022-12-26T01:38:55.452Z,35.73
2022-12-26T01:42:08.092Z,37.58
2022-12-26T01:45:33.175Z,36.63
2022-12-26T01:48:45.415Z,38.50
2022-12-26T01:52:01.991Z,38.70
2022-12-26T01:55:19.004Z,38.40
2022-12-26T01:58:36.147Z,37.40
2022-12-26T02:01:49.888Z,35.55
2022-12-26T02:05:18.734Z,37.88
2022-12-26T02:08:35.555Z,38.68
2022-12-26T02:12:34.088Z,34.85
2022-12-26T02:15:09.676Z,34.85
2022-12-26T02:18:21.732Z,35.45
2022-12-26T02:21:59.829Z,34.45
2022-12-26T02:25:35.556Z,37.15
2022-12-26T02:29:27.693Z,33.38
2022-12-26T02:33:08.941Z,35.18
2022-12-26T02:37:04.678Z,35.48
2022-12-26T02:40:46.537Z,34.58
2022-12-26T02:56:25.102Z,33.48
2022-12-26T02:59:59.657Z,31.30
2022-12-26T03:03:32.595Z,30.48
2022-12-26T03:07:03.974Z,29.18
2022-12-26T03:10:39.523Z,30.48
2022-12-26T03:13:54.883Z,32.25
2022-12-26T03:17:24.515Z,31.17
2022-12-26T03:20:40.397Z,28.05
2022-12-26T03:23:54.776Z,27.33
2022-12-26T03:27:07.212Z,29.73
2022-12-26T03:30:33.961Z,31.75
2022-12-26T03:34:03.551Z,31.75
2022-12-26T03:37:50.177Z,28.65
2022-12-26T03:41:21.953Z,29.30
2022-12-26T03:45:03.451Z,30.95
2022-12-26T03:48:37.732Z,30.48
2022-12-26T03:52:09.371Z,26.70
2022-12-26T03:55:42.052Z,26.05
2022-12-26T03:59:15.786Z,26.30
2022-12-26T04:02:45.819Z,26.18
2022-12-26T04:06:13.008Z,26.35
2022-12-26T04:09:45.375Z,23.90
2022-12-26T04:13:14.096Z,24.28
2022-12-26T04:16:47.157Z,24.38
2022-12-26T04:20:08.521Z,26.45
2022-12-26T04:23:45.779Z,25.95
2022-12-26T04:27:15.941Z,26.00
2022-12-26T04:30:43.178Z,24.65
2022-12-26T04:34:15.477Z,23.93
2022-12-26T04:37:53.451Z,24.58
2022-12-26T04:44:33.994Z,22.98
2022-12-26T04:47:49.124Z,24.08
2022-12-26T04:51:01.025Z,22.85
2022-12-26T04:54:13.694Z,24.15
2022-12-26T04:57:26.060Z,25.98
2022-12-26T05:00:39.473Z,24.30
2022-12-26T05:04:05.964Z,23.40
2022-12-26T05:07:37.435Z,25.13
2022-12-26T05:10:49.420Z,22.83
2022-12-26T05:14:03.096Z,24.25
2022-12-26T05:17:32.014Z,22.90
2022-12-26T05:20:59.552Z,22.40
2022-12-26T05:31:35.011Z,24.95
2022-12-26T05:34:43.633Z,22.85
2022-12-26T05:37:55.698Z,22.68
2022-12-26T05:41:07.857Z,24.35
2022-12-26T05:53:20.489Z,23.13
2022-12-26T05:56:32.691Z,23.13
2022-12-26T05:59:44.655Z,23.95
2022-12-26T06:02:57.081Z,23.25
2022-12-26T06:06:10.286Z,23.38
2022-12-26T06:09:23.321Z,23.08
2022-12-26T06:12:35.462Z,23.63
2022-12-26T06:15:47.743Z,25.20
2022-12-26T06:18:59.991Z,25.00
2022-12-26T06:22:12.094Z,60.60
2022-12-26T06:25:24.244Z,23.55
2022-12-26T06:28:37.506Z,22.45
2022-12-26T06:31:49.737Z,22.48
2022-12-26T06:35:01.944Z,24.38
2022-12-26T06:38:14.657Z,21.48
2022-12-26T06:41:29.078Z,24.00
2022-12-26T06:44:41.279Z,21.95
2022-12-26T06:47:53.422Z,22.35
2022-12-26T06:51:10.817Z,24.88
2022-12-26T06:54:22.957Z,22.25
2022-12-26T06:57:35.018Z,23.93
2022-12-26T07:00:47.245Z,23.30
2022-12-26T07:04:00.459Z,24.85
2022-12-26T07:07:12.611Z,24.00
2022-12-26T07:10:25.464Z,23.78
2022-12-26T07:13:37.641Z,24.45
2022-12-26T07:16:51.226Z,24.68
2022-12-26T07:20:03.768Z,25.90
2022-12-26T07:23:15.898Z,25.03
2022-12-26T07:26:29.914Z,26.98
2022-12-26T07:29:43.101Z,22.88
2022-12-26T07:32:56.546Z,19.85
2022-12-26T07:36:12.813Z,20.38
2022-12-26T07:39:25.031Z,19.15
2022-12-26T07:50:44.708Z,24.90
2022-12-26T07:53:56.861Z,25.65
2022-12-26T07:57:46.031Z,24.90
2022-12-26T08:00:26.668Z,25.98
2022-12-26T08:03:39.248Z,28.55
2022-12-26T08:06:53.639Z,29.60
2022-12-26T08:14:24.146Z,29.80
2022-12-26T08:17:37.314Z,28.33
2022-12-26T08:20:49.663Z,29.05
2022-12-26T08:24:02.167Z,29.50
2022-12-26T08:27:14.809Z,29.68
2022-12-26T08:30:26.990Z,29.63
2022-12-26T08:33:40.870Z,30.48
2022-12-26T08:36:56.345Z,30.55
2022-12-26T08:40:09.586Z,32.53
2022-12-26T08:43:39.164Z,36.30
2022-12-26T08:46:36.941Z,33.53
2022-12-26T08:49:49.488Z,33.40
2022-12-26T08:53:01.688Z,33.05
2022-12-26T08:56:17.931Z,34.43
2022-12-26T08:59:30.181Z,34.30
2022-12-26T09:02:42.386Z,31.30
2022-12-26T09:05:55.203Z,30.03
2022-12-26T09:09:11.349Z,29.43
2022-12-26T09:12:23.721Z,29.97
2022-12-26T09:15:35.777Z,52.93
2022-12-26T09:18:49.126Z,34.83
2022-12-26T09:22:12.053Z,31.73
2022-12-26T09:25:24.816Z,28.13
2022-12-26T09:28:36.832Z,28.38
2022-12-26T09:31:48.982Z,29.85
2022-12-26T09:35:01.882Z,30.93
2022-12-26T09:38:14.074Z,28.20
2022-12-26T09:41:48.600Z,37.80
2022-12-26T09:45:07.601Z,30.18
2022-12-26T09:48:26.225Z,35.13
2022-12-26T09:51:41.267Z,31.98
2022-12-26T09:54:57.476Z,30.30
2022-12-26T09:58:18.216Z,31.10
2022-12-26T10:01:34.810Z,31.35
2022-12-26T10:04:47.813Z,28.78
2022-12-26T10:08:05.380Z,26.80
2022-12-26T10:11:24.212Z,23.13
2022-12-26T10:14:44.434Z,24.00
2022-12-26T10:18:03.611Z,28.18
2022-12-26T10:21:29.697Z,26.33
2022-12-26T10:24:47.315Z,24.03
2022-12-26T10:28:00.034Z,23.48
2022-12-26T10:31:19.785Z,24.75
2022-12-26T10:34:35.596Z,24.40
2022-12-26T10:37:50.578Z,24.93
2022-12-26T10:41:08.514Z,23.55
2022-12-26T10:44:27.407Z,23.38
2022-12-26T10:47:41.551Z,22.28
2022-12-26T10:50:55.731Z,21.85
2022-12-26T10:54:13.025Z,23.05
2022-12-26T10:57:25.521Z,23.75
2022-12-26T11:00:37.851Z,23.28
2022-12-26T11:03:59.626Z,21.95
2022-12-26T11:07:16.071Z,21.77
2022-12-26T11:10:32.687Z,21.75
2022-12-26T11:13:52.229Z,22.85
2022-12-26T11:17:08.930Z,25.98
2022-12-26T11:20:36.025Z,26.03
2022-12-26T11:23:48.297Z,28.10
2022-12-26T11:27:09.465Z,29.15
2022-12-26T11:30:29.468Z,27.75
2022-12-26T11:33:47.808Z,27.10
2022-12-26T11:37:00.509Z,27.18
2022-12-26T11:40:22.262Z,28.45
2022-12-26T11:43:34.996Z,27.70
2022-12-26T11:46:50.311Z,28.55
2022-12-26T11:50:08.860Z,27.05
2022-12-26T11:53:26.509Z,27.90
2022-12-26T11:56:39.775Z,27.48
2022-12-26T11:59:53.174Z,28.63
2022-12-26T12:03:05.813Z,26.85
2022-12-26T12:06:42.171Z,23.55
2022-12-26T12:09:59.642Z,27.50
2022-12-26T12:13:18.665Z,15.68
2022-12-26T12:16:48.799Z,7.68
2022-12-26T12:20:19.082Z,6.38
2022-12-26T12:24:03.471Z,5.10
2022-12-26T12:27:23.457Z,5.00
2022-12-26T12:30:43.062Z,5.58
2022-12-26T12:34:01.743Z,4.83
2022-12-26T12:37:24.941Z,4.90
2022-12-26T12:40:45.323Z,4.95
2022-12-26T12:44:05.378Z,5.18
2022-12-26T12:47:23.622Z,4.63
2022-12-26T12:50:44.183Z,5.08
2022-12-26T12:54:26.013Z,5.28
2022-12-26T12:57:45.852Z,5.08
2022-12-26T13:01:03.066Z,5.68
2022-12-26T13:04:20.680Z,5.13
2022-12-26T13:07:41.802Z,6.53
2022-12-26T13:10:59.510Z,16.80
2022-12-26T13:14:16.557Z,24.78
2022-12-26T13:20:47.968Z,28.33
2022-12-26T13:24:20.061Z,27.15
2022-12-26T13:27:35.629Z,28.80
2022-12-26T13:30:48.203Z,28.90
2022-12-26T13:34:01.746Z,26.35
2022-12-26T13:37:26.173Z,29.73
2022-12-26T13:40:38.761Z,29.03
2022-12-26T13:44:07.798Z,28.35
2022-12-26T13:47:40.395Z,29.15
2022-12-26T13:51:01.534Z,29.90
2022-12-26T13:54:19.657Z,27.58
2022-12-26T13:57:47.523Z,28.50
2022-12-26T14:01:06.121Z,29.25
2022-12-26T14:04:52.212Z,64.73
2022-12-26T14:08:10.483Z,56.90
2022-12-26T14:11:36.341Z,35.18
2022-12-26T14:15:12.109Z,30.65
2022-12-26T14:18:35.714Z,49.43
2022-12-26T14:21:56.964Z,30.93
2022-12-26T14:25:21.692Z,30.85
2022-12-26T14:28:40.989Z,31.53
2022-12-26T14:32:02.029Z,29.13
2022-12-26T14:35:22.089Z,29.03
2022-12-26T14:38:45.127Z,17.23
2022-12-26T14:42:42.211Z,22.23
2022-12-26T14:45:58.623Z,32.73
2022-12-26T14:49:33.521Z,29.33
2022-12-26T14:52:48.023Z,26.03
2022-12-26T14:56:04.056Z,27.60
2022-12-26T14:59:37.314Z,27.90
2022-12-26T15:02:55.849Z,28.38
2022-12-26T15:06:54.205Z,26.55
2022-12-26T15:10:58.428Z,23.90
2022-12-26T15:14:48.369Z,21.25
2022-12-26T15:18:29.601Z,15.08
2022-12-26T15:22:22.295Z,12.33
2022-12-26T15:26:33.639Z,12.53
2022-12-26T15:30:18.407Z,14.85
2022-12-26T15:33:36.402Z,18.15
2022-12-26T15:36:53.960Z,18.70
2022-12-26T15:40:16.827Z,17.98
2022-12-26T15:44:04.234Z,17.58
2022-12-26T15:47:25.295Z,17.50
2022-12-26T15:50:45.964Z,17.65
2022-12-26T15:54:08.208Z,17.88
2022-12-26T15:57:29.062Z,18.30
2022-12-26T16:00:44.077Z,35.68
2022-12-26T16:04:00.390Z,25.28
2022-12-26T16:07:28.720Z,26.18
2022-12-26T16:10:43.523Z,24.18
2022-12-26T16:14:08.948Z,23.73
2022-12-26T16:17:31.621Z,24.70
2022-12-26T16:20:58.913Z,24.58
2022-12-26T16:24:16.796Z,24.98
2022-12-26T16:27:32.080Z,24.93
2022-12-26T16:30:45.449Z,24.90
2022-12-26T16:34:00.930Z,23.48
2022-12-26T16:37:14.027Z,27.98
2022-12-26T16:40:32.136Z,25.15
2022-12-26T16:43:45.611Z,25.58
2022-12-26T16:46:57.981Z,24.93
2022-12-26T16:50:19.785Z,25.58
2022-12-26T16:53:47.329Z,18.53
2022-12-26T17:00:24.914Z,21.20
2022-12-26T17:03:48.719Z,22.85
2022-12-26T17:07:07.325Z,23.65
2022-12-26T17:10:29.402Z,19.50
2022-12-26T17:13:42.490Z,23.70
2022-12-26T17:17:05.152Z,26.03
2022-12-26T17:20:41.006Z,34.98
2022-12-26T17:24:08.736Z,19.88
2022-12-26T17:27:27.412Z,10.43
2022-12-26T17:30:41.756Z,8.70
2022-12-26T17:33:54.501Z,7.70
2022-12-26T17:37:19.502Z,6.93
2022-12-26T17:40:34.031Z,7.38
2022-12-26T17:43:47.747Z,7.68
2022-12-26T17:47:00.606Z,10.45
2022-12-26T17:50:13.846Z,10.98
2022-12-26T17:53:37.941Z,10.83
2022-12-26T17:56:50.323Z,9.93
2022-12-26T18:00:04.031Z,8.05
2022-12-26T18:03:17.046Z,7.45
2022-12-26T18:06:31.744Z,6.73
2022-12-26T18:09:43.945Z,7.83
2022-12-26T18:12:57.492Z,7.58
2022-12-26T18:16:11.708Z,7.70
2022-12-26T18:19:25.354Z,7.43
2022-12-26T18:22:38.605Z,6.50
2022-12-26T18:25:54.438Z,7.03
2022-12-26T18:29:09.044Z,9.85
2022-12-26T18:32:30.958Z,6.80
2022-12-26T18:35:44.094Z,6.10
2022-12-26T18:38:56.680Z,6.30
2022-12-26T18:42:10.058Z,5.93
2022-12-26T18:45:22.535Z,5.53
2022-12-26T18:48:34.750Z,5.98
2022-12-26T18:51:46.958Z,7.88
2022-12-26T18:54:59.813Z,7.98
2022-12-26T18:58:14.319Z,7.00
2022-12-26T19:01:27.202Z,7.20
2022-12-26T19:04:39.651Z,7.05
2022-12-26T19:07:52.780Z,7.35
2022-12-26T19:11:05.384Z,7.08
2022-12-26T19:14:23.897Z,7.73
2022-12-26T19:17:36.704Z,7.03
2022-12-26T19:20:50.911Z,7.40
2022-12-26T19:28:29.323Z,6.98
2022-12-26T19:31:42.271Z,7.65
2022-12-26T19:34:56.175Z,6.38
2022-12-26T19:38:09.401Z,6.80
2022-12-26T19:41:22.463Z,7.33
2022-12-26T19:44:34.586Z,8.25
2022-12-26T19:47:47.566Z,7.78
2022-12-26T19:51:02.242Z,7.03
2022-12-26T19:54:14.527Z,6.68
2022-12-26T19:57:27.388Z,7.23
2022-12-26T20:00:39.588Z,7.25
2022-12-26T20:03:52.424Z,7.30
2022-12-26T20:07:07.632Z,7.70
2022-12-26T20:10:20.389Z,7.95
2022-12-26T20:13:33.870Z,8.10
2022-12-26T20:17:05.653Z,7.98
2022-12-26T20:20:03.320Z,8.83
2022-12-26T20:23:16.880Z,7.90
2022-12-26T20:26:30.436Z,8.15
2022-12-26T20:29:42.791Z,8.20
2022-12-26T20:32:55.920Z,8.58
2022-12-26T20:36:13.788Z,8.93
2022-12-26T20:39:29.046Z,7.78
2022-12-26T20:42:44.050Z,8.40
2022-12-26T20:46:00.748Z,7.70
2022-12-26T20:49:12.530Z,7.78
2022-12-26T20:52:27.247Z,7.88
2022-12-26T20:55:42.785Z,8.00
2022-12-26T20:58:56.990Z,7.93
2022-12-26T21:02:10.895Z,7.85
2022-12-26T21:05:24.659Z,8.05
2022-12-26T21:08:37.039Z,7.65
2022-12-26T21:11:49.823Z,8.73
2022-12-26T21:15:03.546Z,8.20
2022-12-26T21:18:16.460Z,8.03
2022-12-26T21:21:32.818Z,8.15
2022-12-26T21:24:46.687Z,8.48
2022-12-26T21:27:59.627Z,8.55
2022-12-26T21:31:14.995Z,8.35
2022-12-26T21:34:29.822Z,8.10
2022-12-26T21:37:56.665Z,8.18
2022-12-26T21:41:12.908Z,8.08
2022-12-26T21:44:26.495Z,7.75
2022-12-26T21:47:39.420Z,8.25
2022-12-26T21:50:54.260Z,9.38
2022-12-26T21:54:19.180Z,9.10
2022-12-26T21:57:34.276Z,9.73
2022-12-26T22:00:47.420Z,9.60
2022-12-26T22:04:15.307Z,9.48
2022-12-26T22:07:28.291Z,9.43
2022-12-26T22:10:59.135Z,9.23
2022-12-26T22:14:12.017Z,9.20
2022-12-26T22:17:24.629Z,10.20
2022-12-26T22:20:40.229Z,10.05
2022-12-26T22:23:54.433Z,9.78
2022-12-26T22:27:08.064Z,9.55
2022-12-26T22:30:22.738Z,9.25
2022-12-26T22:33:36.320Z,9.95
2022-12-26T22:36:51.259Z,9.83
2022-12-26T22:40:11.208Z,9.88
2022-12-26T22:43:26.905Z,9.90
2022-12-26T22:46:40.255Z,10.10
2022-12-26T22:49:52.490Z,10.28
2022-12-26T22:53:05.291Z,10.30
2022-12-26T22:56:19.744Z,10.05
2022-12-26T23:00:07.163Z,9.23
2022-12-26T23:02:47.985Z,10.60
2022-12-26T23:06:03.422Z,9.78
2022-12-26T23:09:21.272Z,9.50
2022-12-26T23:12:51.195Z,10.15
2022-12-26T23:16:10.320Z,9.53
2022-12-26T23:19:44.616Z,10.40
2022-12-26T23:22:58.660Z,9.88
2022-12-26T23:26:13.181Z,9.75
2022-12-26T23:29:42.799Z,9.45
2022-12-26T23:32:58.011Z,8.38
2022-12-26T23:36:10.625Z,8.53
2022-12-26T23:39:35.584Z,7.73
2022-12-26T23:42:47.737Z,8.35
2022-12-26T23:46:00.182Z,7.85
2022-12-26T23:49:15.734Z,6.70
2022-12-26T23:56:45.904Z,6.23
